createdAt,value
2019-04-07T00:00:10.689Z,18.92
2019-04-07T00:01:11.317Z,18.92
2019-04-07T00:02:10.701Z,18.92
2019-04-07T00:03:10.765Z,18.92
2019-04-07T00:04:10.917Z,18.92
2019-04-07T00:05:14.036Z,18.92
2019-04-07T00:06:10.908Z,18.92
2019-04-07T00:07:10.629Z,18.92
2019-04-07T00:08:11.177Z,18.91
2019-04-07T00:09:10.872Z,18.91
2019-04-07T00:10:11.090Z,18.91
2019-04-07T00:11:10.699Z,18.91
2019-04-07T00:12:11.093Z,18.91
2019-04-07T00:13:10.870Z,18.9
2019-04-07T00:14:11.098Z,18.9
2019-04-07T00:15:11.319Z,18.9
2019-04-07T00:16:10.948Z,18.9
2019-04-07T00:17:10.959Z,18.9
2019-04-07T00:18:10.790Z,18.89
2019-04-07T00:19:11.133Z,18.89
2019-04-07T00:20:10.837Z,18.88
2019-04-07T00:21:11.280Z,18.89
2019-04-07T00:22:11.314Z,18.88
2019-04-07T00:23:10.756Z,18.87
2019-04-07T00:24:10.884Z,18.88
2019-04-07T00:25:10.802Z,18.87
2019-04-07T00:26:10.805Z,18.87
2019-04-07T00:27:10.730Z,18.88
2019-04-07T00:28:10.875Z,18.88
2019-04-07T00:29:11.002Z,18.87
2019-04-07T00:30:10.890Z,18.87
2019-04-07T00:31:10.986Z,18.88
2019-04-07T00:32:11.100Z,18.87
2019-04-07T00:33:11.309Z,18.87
2019-04-07T00:34:10.936Z,18.87
2019-04-07T00:35:21.872Z,18.86
2019-04-07T00:36:10.644Z,18.86
2019-04-07T00:37:10.973Z,18.86
2019-04-07T00:38:10.704Z,18.85
2019-04-07T00:39:10.779Z,18.86
2019-04-07T00:40:10.800Z,18.86
2019-04-07T00:41:10.961Z,18.86
2019-04-07T00:42:10.763Z,18.85
2019-04-07T00:43:10.878Z,18.86
2019-04-07T00:44:11.304Z,18.85
2019-04-07T00:45:10.807Z,18.85
2019-04-07T00:46:11.513Z,18.84
2019-04-07T00:47:10.811Z,18.84
2019-04-07T00:48:10.795Z,18.84
2019-04-07T00:49:10.796Z,18.85
2019-04-07T00:50:10.842Z,18.84
2019-04-07T00:51:11.168Z,18.84
2019-04-07T00:52:10.896Z,18.84
2019-04-07T00:53:11.051Z,18.83
2019-04-07T00:54:10.646Z,18.84
2019-04-07T00:55:13.115Z,18.84
2019-04-07T00:56:10.714Z,18.83
2019-04-07T00:57:10.903Z,18.83
2019-04-07T00:58:10.723Z,18.83
2019-04-07T00:59:11.026Z,18.83
2019-04-07T01:00:10.769Z,18.83
2019-04-07T01:01:10.915Z,18.83
2019-04-07T01:02:10.761Z,18.82
2019-04-07T01:03:10.803Z,18.82
2019-04-07T01:04:11.127Z,18.82
2019-04-07T01:05:10.989Z,18.82
2019-04-07T01:06:10.756Z,18.81
2019-04-07T01:07:11.386Z,18.82
2019-04-07T01:08:10.894Z,18.81
2019-04-07T01:09:10.960Z,18.81
2019-04-07T01:10:10.947Z,18.81
2019-04-07T01:11:11.309Z,18.8
2019-04-07T01:12:10.906Z,18.8
2019-04-07T01:13:10.747Z,18.81
2019-04-07T01:14:10.908Z,18.8
2019-04-07T01:15:10.886Z,18.8
2019-04-07T01:16:10.804Z,18.8
2019-04-07T01:17:10.696Z,18.79
2019-04-07T01:18:10.684Z,18.8
2019-04-07T01:19:10.786Z,18.8
2019-04-07T01:20:11.424Z,18.8
2019-04-07T01:21:10.761Z,18.79
2019-04-07T01:22:11.128Z,18.78
2019-04-07T01:23:10.773Z,18.79
2019-04-07T01:24:10.783Z,18.78
2019-04-07T01:25:11.268Z,18.78
2019-04-07T01:26:11.209Z,18.79
2019-04-07T01:27:11.518Z,18.77
2019-04-07T01:28:11.020Z,18.78
2019-04-07T01:29:10.875Z,18.78
2019-04-07T01:30:10.660Z,18.77
2019-04-07T01:31:10.643Z,18.77
2019-04-07T01:32:11.294Z,18.77
2019-04-07T01:33:10.661Z,18.78
2019-04-07T01:34:10.712Z,18.76
2019-04-07T01:35:11.180Z,18.76
2019-04-07T01:36:11.231Z,18.77
2019-04-07T01:37:10.928Z,18.76
2019-04-07T01:38:10.675Z,18.76
2019-04-07T01:39:10.798Z,18.76
2019-04-07T01:40:10.778Z,18.76
2019-04-07T01:41:11.173Z,18.76
2019-04-07T01:42:10.728Z,18.75
2019-04-07T01:43:10.840Z,18.75
2019-04-07T01:44:11.288Z,18.75
2019-04-07T01:45:10.825Z,18.75
2019-04-07T01:46:11.031Z,18.76
2019-04-07T01:47:11.341Z,18.75
2019-04-07T01:48:11.424Z,18.75
2019-04-07T01:49:11.613Z,18.75
2019-04-07T01:50:10.947Z,18.74
2019-04-07T01:51:10.749Z,18.74
2019-04-07T01:52:10.913Z,18.74
2019-04-07T01:53:10.625Z,18.73
2019-04-07T01:54:10.679Z,18.73
2019-04-07T01:55:11.309Z,18.73
2019-04-07T01:56:10.887Z,18.73
2019-04-07T01:57:10.713Z,18.73
2019-04-07T01:58:10.823Z,18.73
2019-04-07T01:59:12.060Z,18.73
2019-04-07T02:00:11.127Z,18.73
2019-04-07T02:01:10.869Z,18.73
2019-04-07T02:02:10.871Z,18.73
2019-04-07T02:03:11.171Z,18.72
2019-04-07T02:04:10.747Z,18.72
2019-04-07T02:05:10.942Z,18.72
2019-04-07T02:06:10.611Z,18.72
2019-04-07T02:07:10.743Z,18.72
2019-04-07T02:08:10.868Z,18.71
2019-04-07T02:09:11.054Z,18.71
2019-04-07T02:10:10.871Z,18.72
2019-04-07T02:11:11.337Z,18.71
2019-04-07T02:12:10.683Z,18.71
2019-04-07T02:13:11.024Z,18.71
2019-04-07T02:14:11.209Z,18.71
2019-04-07T02:15:11.287Z,18.7
2019-04-07T02:16:11.310Z,18.7
2019-04-07T02:17:10.856Z,18.71
2019-04-07T02:18:11.331Z,18.7
2019-04-07T02:19:10.876Z,18.7
2019-04-07T02:20:11.265Z,18.7
2019-04-07T02:21:10.974Z,18.69
2019-04-07T02:22:11.106Z,18.68
2019-04-07T02:23:10.854Z,18.69
2019-04-07T02:24:11.439Z,18.69
2019-04-07T02:25:10.909Z,18.69
2019-04-07T02:26:11.366Z,18.68
2019-04-07T02:27:10.579Z,18.68
2019-04-07T02:28:11.003Z,18.68
2019-04-07T02:29:10.654Z,18.68
2019-04-07T02:30:10.607Z,18.68
2019-04-07T02:31:10.812Z,18.68
2019-04-07T02:32:10.798Z,18.68
2019-04-07T02:33:10.898Z,18.68
2019-04-07T02:34:11.725Z,18.68
2019-04-07T02:35:10.748Z,18.67
2019-04-07T02:36:17.717Z,18.67
2019-04-07T02:37:10.715Z,18.68
2019-04-07T02:38:13.328Z,18.67
2019-04-07T02:39:11.150Z,18.68
2019-04-07T02:40:11.701Z,18.67
2019-04-07T02:41:10.980Z,18.67
2019-04-07T02:42:11.019Z,18.68
2019-04-07T02:43:10.815Z,18.66
2019-04-07T02:44:10.878Z,18.67
2019-04-07T02:45:11.020Z,18.66
2019-04-07T02:46:10.996Z,18.66
2019-04-07T02:47:10.714Z,18.67
2019-04-07T02:48:10.850Z,18.65
2019-04-07T02:49:10.906Z,18.65
2019-04-07T02:50:10.725Z,18.65
2019-04-07T02:51:11.100Z,18.65
2019-04-07T02:52:11.106Z,18.65
2019-04-07T02:53:11.032Z,18.65
2019-04-07T02:54:10.775Z,18.65
2019-04-07T02:55:10.965Z,18.64
2019-04-07T02:56:10.831Z,18.64
2019-04-07T02:57:10.772Z,18.64
2019-04-07T02:58:10.830Z,18.64
2019-04-07T02:59:10.935Z,18.64
2019-04-07T03:00:11.849Z,18.64
2019-04-07T03:01:11.511Z,18.64
2019-04-07T03:02:10.911Z,18.64
2019-04-07T03:03:11.011Z,18.64
2019-04-07T03:04:11.655Z,18.63
2019-04-07T03:05:11.773Z,18.63
2019-04-07T03:06:10.566Z,18.63
2019-04-07T03:07:11.240Z,18.63
2019-04-07T03:08:11.843Z,18.63
2019-04-07T03:09:10.948Z,18.62
2019-04-07T03:10:10.856Z,18.62
2019-04-07T03:11:10.814Z,18.62
2019-04-07T03:12:10.719Z,18.61
2019-04-07T03:13:10.812Z,18.62
2019-04-07T03:14:10.956Z,18.62
2019-04-07T03:15:11.068Z,18.62
2019-04-07T03:16:10.948Z,18.61
2019-04-07T03:17:11.783Z,18.61
2019-04-07T03:18:10.781Z,18.61
2019-04-07T03:19:11.067Z,18.62
2019-04-07T03:20:10.821Z,18.61
2019-04-07T03:21:11.567Z,18.61
2019-04-07T03:22:11.097Z,18.61
2019-04-07T03:23:10.648Z,18.6
2019-04-07T03:24:11.204Z,18.61
2019-04-07T03:25:11.141Z,18.6
2019-04-07T03:26:15.107Z,18.61
2019-04-07T03:27:10.663Z,18.6
2019-04-07T03:28:11.663Z,18.6
2019-04-07T03:29:11.830Z,18.6
2019-04-07T03:30:11.419Z,18.6
2019-04-07T03:31:12.618Z,18.6
2019-04-07T03:32:14.527Z,18.6
2019-04-07T03:33:13.491Z,18.6
2019-04-07T03:34:12.271Z,18.59
2019-04-07T03:35:12.544Z,18.6
2019-04-07T03:36:13.643Z,18.6
2019-04-07T03:37:21.121Z,18.6
2019-04-07T03:38:12.019Z,18.6
2019-04-07T03:39:11.174Z,18.6
2019-04-07T03:40:11.467Z,18.6
2019-04-07T03:41:11.470Z,18.59
2019-04-07T03:42:10.731Z,18.6
2019-04-07T03:43:10.633Z,18.6
2019-04-07T03:44:10.779Z,18.61
2019-04-07T03:45:11.266Z,18.6
2019-04-07T03:46:10.673Z,18.61
2019-04-07T03:47:11.069Z,18.61
2019-04-07T03:48:10.872Z,18.62
2019-04-07T03:49:11.266Z,18.63
2019-04-07T03:50:11.059Z,18.63
2019-04-07T03:51:10.986Z,18.64
2019-04-07T03:52:11.828Z,18.64
2019-04-07T03:53:10.879Z,18.65
2019-04-07T03:54:10.847Z,18.65
2019-04-07T03:55:10.988Z,18.66
2019-04-07T03:56:10.907Z,18.66
2019-04-07T03:57:11.210Z,18.68
2019-04-07T03:58:10.591Z,18.69
2019-04-07T03:59:10.928Z,18.7
2019-04-07T04:00:10.746Z,18.71
2019-04-07T04:01:10.745Z,18.71
2019-04-07T04:02:11.343Z,18.72
2019-04-07T04:03:10.987Z,18.74
2019-04-07T04:04:10.769Z,18.75
2019-04-07T04:05:10.699Z,18.76
2019-04-07T04:06:11.736Z,18.77
2019-04-07T04:07:22.259Z,18.79
2019-04-07T04:08:11.296Z,18.81
2019-04-07T04:09:11.330Z,18.82
2019-04-07T04:10:10.881Z,18.83
2019-04-07T04:11:11.637Z,18.84
2019-04-07T04:12:11.803Z,18.86
2019-04-07T04:13:11.069Z,18.87
2019-04-07T04:14:11.132Z,18.88
2019-04-07T04:15:10.822Z,18.89
2019-04-07T04:16:10.625Z,18.9
2019-04-07T04:17:10.589Z,18.91
2019-04-07T04:18:11.886Z,18.93
2019-04-07T04:19:11.027Z,18.94
2019-04-07T04:20:10.694Z,18.94
2019-04-07T04:21:11.269Z,18.95
2019-04-07T04:22:11.560Z,18.96
2019-04-07T04:23:11.564Z,18.97
2019-04-07T04:24:10.661Z,18.97
2019-04-07T04:25:10.772Z,18.99
2019-04-07T04:26:10.804Z,19
2019-04-07T04:27:11.099Z,19
2019-04-07T04:28:10.709Z,19.01
2019-04-07T04:29:10.688Z,19.03
2019-04-07T04:30:11.946Z,19.03
2019-04-07T04:31:11.083Z,19.03
2019-04-07T04:32:11.127Z,19.04
2019-04-07T04:33:10.809Z,19.04
2019-04-07T04:34:11.963Z,19.04
2019-04-07T04:35:10.893Z,19.05
2019-04-07T04:36:10.675Z,19.06
2019-04-07T04:37:11.158Z,19.06
2019-04-07T04:38:10.801Z,19.07
2019-04-07T04:39:10.658Z,18.99
2019-04-07T04:40:10.797Z,18.89
2019-04-07T04:41:11.230Z,18.81
2019-04-07T04:42:11.511Z,18.74
2019-04-07T04:43:10.814Z,18.69
2019-04-07T04:44:10.723Z,18.64
2019-04-07T04:45:10.744Z,18.56
2019-04-07T04:46:12.355Z,18.54
2019-04-07T04:47:10.863Z,18.47
2019-04-07T04:48:11.860Z,18.41
2019-04-07T04:49:11.792Z,18.38
2019-04-07T04:50:10.830Z,18.34
2019-04-07T04:51:11.744Z,18.31
2019-04-07T04:52:11.431Z,18.23
2019-04-07T04:53:10.862Z,18.2
2019-04-07T04:54:11.064Z,18.18
2019-04-07T04:55:11.302Z,18.17
2019-04-07T04:56:10.978Z,18.09
2019-04-07T04:57:11.155Z,18.06
2019-04-07T04:58:11.202Z,18.03
2019-04-07T04:59:12.750Z,18
2019-04-07T05:00:10.803Z,18
2019-04-07T05:01:10.733Z,18
2019-04-07T05:02:10.786Z,18.11
2019-04-07T05:03:10.665Z,18.19
2019-04-07T05:04:11.483Z,18.25
2019-04-07T05:05:10.984Z,18.34
2019-04-07T05:06:11.008Z,18.37
2019-04-07T05:07:11.270Z,18.4
2019-04-07T05:08:11.413Z,18.44
2019-04-07T05:09:10.829Z,18.47
2019-04-07T05:10:10.962Z,18.49
2019-04-07T05:11:11.001Z,18.52
2019-04-07T05:12:10.564Z,18.55
2019-04-07T05:13:10.853Z,18.57
2019-04-07T05:14:10.713Z,18.59
2019-04-07T05:15:10.846Z,18.6
2019-04-07T05:16:11.832Z,18.62
2019-04-07T05:17:12.690Z,18.64
2019-04-07T05:18:10.884Z,18.65
2019-04-07T05:19:11.016Z,18.67
2019-04-07T05:20:10.931Z,18.68
2019-04-07T05:21:10.734Z,18.7
2019-04-07T05:22:11.304Z,18.71
2019-04-07T05:23:10.902Z,18.72
2019-04-07T05:24:11.475Z,18.72
2019-04-07T05:25:10.904Z,18.73
2019-04-07T05:26:10.993Z,18.74
2019-04-07T05:27:11.347Z,18.76
2019-04-07T05:28:11.300Z,18.75
2019-04-07T05:29:10.957Z,18.76
2019-04-07T05:30:11.179Z,18.77
2019-04-07T05:31:10.602Z,18.77
2019-04-07T05:32:11.070Z,18.79
2019-04-07T05:33:11.068Z,18.79
2019-04-07T05:34:10.812Z,18.8
2019-04-07T05:35:10.717Z,18.8
2019-04-07T05:36:10.743Z,18.8
2019-04-07T05:37:10.707Z,18.81
2019-04-07T05:38:11.306Z,18.81
2019-04-07T05:39:10.707Z,18.82
2019-04-07T05:40:11.262Z,18.83
2019-04-07T05:41:10.781Z,18.82
2019-04-07T05:42:10.904Z,18.83
2019-04-07T05:43:10.830Z,18.83
2019-04-07T05:44:11.375Z,18.84
2019-04-07T05:45:11.405Z,18.83
2019-04-07T05:46:10.933Z,18.84
2019-04-07T05:47:12.349Z,18.84
2019-04-07T05:48:10.949Z,18.84
2019-04-07T05:49:10.944Z,18.84
2019-04-07T05:50:11.113Z,18.85
2019-04-07T05:51:10.618Z,18.84
2019-04-07T05:52:10.638Z,18.85
2019-04-07T05:53:13.374Z,18.86
2019-04-07T05:54:12.249Z,18.85
2019-04-07T05:55:10.976Z,18.85
2019-04-07T05:56:11.102Z,18.85
2019-04-07T05:57:10.788Z,18.85
2019-04-07T05:58:10.693Z,18.86
2019-04-07T05:59:12.960Z,18.86
2019-04-07T06:00:13.499Z,18.86
2019-04-07T06:01:10.729Z,18.86
2019-04-07T06:02:11.083Z,18.86
2019-04-07T06:03:11.230Z,18.86
2019-04-07T06:04:13.618Z,18.86
2019-04-07T06:05:11.108Z,18.86
2019-04-07T06:06:11.488Z,18.87
2019-04-07T06:07:10.637Z,18.86
2019-04-07T06:08:21.664Z,18.86
2019-04-07T06:09:11.202Z,18.86
2019-04-07T06:10:10.609Z,18.87
2019-04-07T06:11:11.396Z,18.87
2019-04-07T06:12:10.739Z,18.87
2019-04-07T06:13:12.908Z,18.86
2019-04-07T06:14:11.470Z,18.86
2019-04-07T06:15:10.865Z,18.85
2019-04-07T06:16:10.722Z,18.85
2019-04-07T06:17:10.838Z,18.86
2019-04-07T06:18:10.714Z,18.86
2019-04-07T06:19:10.659Z,18.86
2019-04-07T06:20:14.035Z,18.86
2019-04-07T06:21:14.045Z,18.86
2019-04-07T06:22:11.088Z,18.86
2019-04-07T06:23:10.797Z,18.86
2019-04-07T06:24:11.320Z,18.85
2019-04-07T06:25:11.095Z,18.86
2019-04-07T06:26:11.812Z,18.86
2019-04-07T06:27:10.970Z,18.86
2019-04-07T06:28:10.730Z,18.86
2019-04-07T06:29:10.759Z,18.87
2019-04-07T06:30:10.885Z,18.86
2019-04-07T06:31:10.685Z,18.87
2019-04-07T06:32:11.207Z,18.87
2019-04-07T06:33:11.182Z,18.86
2019-04-07T06:34:11.980Z,18.86
2019-04-07T06:35:13.278Z,18.87
2019-04-07T06:36:11.504Z,18.86
2019-04-07T06:37:10.858Z,18.86
2019-04-07T06:38:10.762Z,18.87
2019-04-07T06:39:11.021Z,18.86
2019-04-07T06:40:11.150Z,18.87
2019-04-07T06:41:11.325Z,18.87
2019-04-07T06:42:11.001Z,18.87
2019-04-07T06:43:10.710Z,18.87
2019-04-07T06:44:13.718Z,18.87
2019-04-07T06:45:11.897Z,18.86
2019-04-07T06:46:10.723Z,18.86
2019-04-07T06:47:10.680Z,18.87
2019-04-07T06:48:11.396Z,18.86
2019-04-07T06:49:11.640Z,18.86
2019-04-07T06:50:14.105Z,18.86
2019-04-07T06:51:10.742Z,18.86
2019-04-07T06:52:10.662Z,18.86
2019-04-07T06:53:14.126Z,18.86
2019-04-07T06:54:11.352Z,18.86
2019-04-07T06:55:10.787Z,18.86
2019-04-07T06:56:11.062Z,18.86
2019-04-07T06:57:10.796Z,18.86
2019-04-07T06:58:11.175Z,18.86
2019-04-07T06:59:13.776Z,18.87
2019-04-07T07:00:11.108Z,18.86
2019-04-07T07:01:11.091Z,18.86
2019-04-07T07:02:10.689Z,18.86
2019-04-07T07:03:11.670Z,18.86
2019-04-07T07:04:12.802Z,18.85
2019-04-07T07:05:12.629Z,18.86
2019-04-07T07:06:11.091Z,18.87
2019-04-07T07:07:10.627Z,18.86
2019-04-07T07:08:11.696Z,18.85
2019-04-07T07:09:13.112Z,18.86
2019-04-07T07:10:10.720Z,18.86
2019-04-07T07:11:11.321Z,18.86
2019-04-07T07:12:19.701Z,18.85
2019-04-07T07:13:13.000Z,18.86
2019-04-07T07:14:14.004Z,18.85
2019-04-07T07:15:11.142Z,18.85
2019-04-07T07:16:13.939Z,18.85
2019-04-07T07:17:10.873Z,18.86
2019-04-07T07:18:11.337Z,18.86
2019-04-07T07:19:10.836Z,18.86
2019-04-07T07:20:11.215Z,18.86
2019-04-07T07:21:11.075Z,18.85
2019-04-07T07:22:14.710Z,18.85
2019-04-07T07:23:13.274Z,18.85
2019-04-07T07:24:11.306Z,18.85
2019-04-07T07:25:13.234Z,18.85
2019-04-07T07:26:11.528Z,18.85
2019-04-07T07:27:12.147Z,18.85
2019-04-07T07:28:12.488Z,18.85
2019-04-07T07:29:13.184Z,18.85
2019-04-07T07:30:10.752Z,18.85
2019-04-07T07:31:10.803Z,18.85
2019-04-07T07:32:11.517Z,18.86
2019-04-07T07:33:11.206Z,18.86
2019-04-07T07:34:11.779Z,18.85
2019-04-07T07:35:14.261Z,18.85
2019-04-07T07:36:10.822Z,18.85
2019-04-07T07:37:10.962Z,18.85
2019-04-07T07:38:10.585Z,18.85
2019-04-07T07:39:12.492Z,18.85
2019-04-07T07:40:12.319Z,18.85
2019-04-07T07:41:10.953Z,18.85
2019-04-07T07:42:11.419Z,18.85
2019-04-07T07:43:10.733Z,18.85
2019-04-07T07:44:10.712Z,18.85
2019-04-07T07:45:12.834Z,18.85
2019-04-07T07:46:10.643Z,18.86
2019-04-07T07:47:11.843Z,18.85
2019-04-07T07:48:10.913Z,18.85
2019-04-07T07:49:11.554Z,18.86
2019-04-07T07:50:11.325Z,18.86
2019-04-07T07:51:13.018Z,18.86
2019-04-07T07:52:11.600Z,18.85
2019-04-07T07:53:11.426Z,18.85
2019-04-07T07:54:11.175Z,18.85
2019-04-07T07:55:10.999Z,18.85
2019-04-07T07:56:12.337Z,18.85
2019-04-07T07:57:11.178Z,18.85
2019-04-07T07:58:10.583Z,18.84
2019-04-07T07:59:11.096Z,18.84
2019-04-07T08:00:11.243Z,18.84
2019-04-07T08:01:12.235Z,18.85
2019-04-07T08:02:11.049Z,18.84
2019-04-07T08:03:10.644Z,18.84
2019-04-07T08:04:10.733Z,18.85
2019-04-07T08:05:11.423Z,18.84
2019-04-07T08:06:10.831Z,18.84
2019-04-07T08:07:12.733Z,18.84
2019-04-07T08:08:11.535Z,18.83
2019-04-07T08:09:14.821Z,18.84
2019-04-07T08:10:10.806Z,18.84
2019-04-07T08:11:11.214Z,18.84
2019-04-07T08:12:11.572Z,18.84
2019-04-07T08:13:11.229Z,18.83
2019-04-07T08:14:14.392Z,18.84
2019-04-07T08:15:10.614Z,18.83
2019-04-07T08:16:10.922Z,18.83
2019-04-07T08:17:10.655Z,18.82
2019-04-07T08:18:11.410Z,18.83
2019-04-07T08:19:10.981Z,18.84
2019-04-07T08:20:12.020Z,18.84
2019-04-07T08:21:12.447Z,18.84
2019-04-07T08:22:11.584Z,18.84
2019-04-07T08:23:12.085Z,18.86
2019-04-07T08:24:11.203Z,18.86
2019-04-07T08:25:10.940Z,18.88
2019-04-07T08:26:11.652Z,18.89
2019-04-07T08:27:11.480Z,18.89
2019-04-07T08:28:10.732Z,18.91
2019-04-07T08:29:12.512Z,18.92
2019-04-07T08:30:13.482Z,18.93
2019-04-07T08:31:11.050Z,18.94
2019-04-07T08:32:11.067Z,18.96
2019-04-07T08:33:10.605Z,18.97
2019-04-07T08:34:10.933Z,18.98
2019-04-07T08:35:10.578Z,19
2019-04-07T08:36:12.868Z,19.01
2019-04-07T08:37:14.325Z,19.04
2019-04-07T08:38:11.033Z,19.06
2019-04-07T08:39:20.774Z,19.08
2019-04-07T08:40:10.873Z,19.09
2019-04-07T08:41:12.355Z,19.11
2019-04-07T08:42:14.032Z,19.13
2019-04-07T08:43:11.465Z,19.16
2019-04-07T08:44:11.502Z,19.17
2019-04-07T08:45:11.365Z,19.19
2019-04-07T08:46:10.998Z,19.2
2019-04-07T08:47:13.413Z,19.22
2019-04-07T08:48:10.910Z,19.24
2019-04-07T08:49:11.537Z,19.26
2019-04-07T08:50:10.648Z,19.28
2019-04-07T08:51:11.518Z,19.3
2019-04-07T08:52:12.269Z,19.31
2019-04-07T08:53:12.787Z,19.32
2019-04-07T08:54:11.643Z,19.36
2019-04-07T08:55:10.565Z,19.38
2019-04-07T08:56:10.867Z,19.39
2019-04-07T08:57:10.785Z,19.41
2019-04-07T08:58:10.627Z,19.43
2019-04-07T08:59:12.933Z,19.44
2019-04-07T09:00:14.742Z,19.46
2019-04-07T09:01:10.785Z,19.48
2019-04-07T09:02:11.360Z,19.5
2019-04-07T09:03:13.132Z,19.51
2019-04-07T09:04:11.021Z,19.52
2019-04-07T09:05:11.560Z,19.53
2019-04-07T09:06:10.998Z,19.54
2019-04-07T09:07:10.850Z,19.56
2019-04-07T09:08:10.664Z,19.57
2019-04-07T09:09:11.173Z,19.59
2019-04-07T09:10:10.515Z,19.59
2019-04-07T09:11:11.193Z,19.61
2019-04-07T09:12:11.271Z,19.63
2019-04-07T09:13:10.574Z,19.63
2019-04-07T09:14:10.564Z,19.65
2019-04-07T09:15:12.029Z,19.67
2019-04-07T09:16:13.753Z,19.68
2019-04-07T09:17:10.696Z,19.69
2019-04-07T09:18:12.666Z,19.71
2019-04-07T09:19:10.516Z,19.71
2019-04-07T09:20:10.884Z,19.75
2019-04-07T09:21:13.258Z,19.74
2019-04-07T09:22:10.752Z,19.74
2019-04-07T09:23:11.325Z,19.76
2019-04-07T09:24:11.436Z,19.77
2019-04-07T09:25:10.891Z,19.78
2019-04-07T09:26:11.996Z,19.8
2019-04-07T09:27:11.263Z,19.81
2019-04-07T09:28:11.102Z,19.81
2019-04-07T09:29:10.564Z,19.81
2019-04-07T09:30:11.240Z,19.82
2019-04-07T09:31:10.598Z,19.84
2019-04-07T09:32:10.891Z,19.84
2019-04-07T09:33:11.382Z,19.85
2019-04-07T09:34:11.542Z,19.85
2019-04-07T09:35:11.261Z,19.87
2019-04-07T09:36:11.189Z,19.87
2019-04-07T09:37:10.798Z,19.88
2019-04-07T09:38:10.979Z,19.88
2019-04-07T09:39:11.156Z,19.9
2019-04-07T09:40:10.521Z,19.9
2019-04-07T09:41:10.830Z,19.9
2019-04-07T09:42:10.689Z,19.92
2019-04-07T09:43:11.159Z,19.92
2019-04-07T09:44:11.425Z,19.93
2019-04-07T09:45:12.489Z,19.94
2019-04-07T09:46:11.694Z,19.96
2019-04-07T09:47:11.245Z,19.96
2019-04-07T09:48:10.636Z,19.97
2019-04-07T09:49:10.604Z,19.97
2019-04-07T09:50:11.202Z,19.98
2019-04-07T09:51:11.175Z,19.98
2019-04-07T09:52:13.594Z,19.99
2019-04-07T09:53:10.671Z,19.99
2019-04-07T09:54:11.031Z,19.99
2019-04-07T09:55:11.064Z,19.98
2019-04-07T09:56:11.911Z,20
2019-04-07T09:57:11.761Z,20
2019-04-07T09:58:11.856Z,20.01
2019-04-07T09:59:14.372Z,20.01
2019-04-07T10:00:11.533Z,20.01
2019-04-07T10:01:10.971Z,20.02
2019-04-07T10:02:11.411Z,20.02
2019-04-07T10:03:13.578Z,20.02
2019-04-07T10:04:12.031Z,20.03
2019-04-07T10:05:11.268Z,20.03
2019-04-07T10:06:10.713Z,20.03
2019-04-07T10:07:11.112Z,20.04
2019-04-07T10:08:12.408Z,20.06
2019-04-07T10:09:11.318Z,20.05
2019-04-07T10:10:13.724Z,20.05
2019-04-07T10:11:10.703Z,20.05
2019-04-07T10:12:10.503Z,20.05
2019-04-07T10:13:11.082Z,20.05
2019-04-07T10:14:10.653Z,20.05
2019-04-07T10:15:11.999Z,20.05
2019-04-07T10:16:11.860Z,20.05
2019-04-07T10:17:11.804Z,20.05
2019-04-07T10:18:10.707Z,20.06
2019-04-07T10:19:10.969Z,20.06
2019-04-07T10:20:11.208Z,20.08
2019-04-07T10:21:11.052Z,20.09
2019-04-07T10:22:10.681Z,20.08
2019-04-07T10:23:10.835Z,20.08
2019-04-07T10:24:10.527Z,20.08
2019-04-07T10:25:10.770Z,20.08
2019-04-07T10:26:10.539Z,20.08
2019-04-07T10:27:10.866Z,20.09
2019-04-07T10:28:12.591Z,20.08
2019-04-07T10:29:11.016Z,20.09
2019-04-07T10:30:11.047Z,20.09
2019-04-07T10:31:11.328Z,20.1
2019-04-07T10:32:11.362Z,20.1
2019-04-07T10:33:10.489Z,20.09
2019-04-07T10:34:13.053Z,20.11
2019-04-07T10:35:11.258Z,20.1
2019-04-07T10:36:11.228Z,20.1
2019-04-07T10:37:10.532Z,20.12
2019-04-07T10:38:10.921Z,20.11
2019-04-07T10:39:10.497Z,20.12
2019-04-07T10:40:17.389Z,20.12
2019-04-07T10:41:10.752Z,20.12
2019-04-07T10:42:11.297Z,20.13
2019-04-07T10:43:10.686Z,20.13
2019-04-07T10:44:10.587Z,20.14
2019-04-07T10:45:10.773Z,20.14
2019-04-07T10:46:11.179Z,20.15
2019-04-07T10:47:10.690Z,20.14
2019-04-07T10:48:11.007Z,20.16
2019-04-07T10:49:11.352Z,20.17
2019-04-07T10:50:11.153Z,20.17
2019-04-07T10:51:10.728Z,20.16
2019-04-07T10:52:11.318Z,20.17
2019-04-07T10:53:11.236Z,20.17
2019-04-07T10:54:10.540Z,20.17
2019-04-07T10:55:10.457Z,20.16
2019-04-07T10:56:10.564Z,20.17
2019-04-07T10:57:11.102Z,20.18
2019-04-07T10:58:10.661Z,20.16
2019-04-07T10:59:11.463Z,20.17
2019-04-07T11:00:10.989Z,20.19
2019-04-07T11:01:11.119Z,20.18
2019-04-07T11:02:11.776Z,20.19
2019-04-07T11:03:10.974Z,20.19
2019-04-07T11:04:10.728Z,20.19
2019-04-07T11:05:10.446Z,20.18
2019-04-07T11:06:11.557Z,20.18
2019-04-07T11:07:10.786Z,20.17
2019-04-07T11:08:11.631Z,20.17
2019-04-07T11:09:11.182Z,20.16
2019-04-07T11:10:10.502Z,20.17
2019-04-07T11:11:10.515Z,20.16
2019-04-07T11:12:10.973Z,20.16
2019-04-07T11:13:12.662Z,20.16
2019-04-07T11:14:11.288Z,20.16
2019-04-07T11:15:10.697Z,20.18
2019-04-07T11:16:10.913Z,20.16
2019-04-07T11:17:10.578Z,20.17
2019-04-07T11:18:10.608Z,20.17
2019-04-07T11:19:11.079Z,20.16
2019-04-07T11:20:10.669Z,20.16
2019-04-07T11:21:10.990Z,20.16
2019-04-07T11:22:10.630Z,20.16
2019-04-07T11:23:10.889Z,20.15
2019-04-07T11:24:10.679Z,20.17
2019-04-07T11:25:10.861Z,20.16
2019-04-07T11:26:11.222Z,20.16
2019-04-07T11:27:11.274Z,20.17
2019-04-07T11:28:11.113Z,20.17
2019-04-07T11:29:10.456Z,20.17
2019-04-07T11:30:11.369Z,20.18
2019-04-07T11:31:10.468Z,20.18
2019-04-07T11:32:10.585Z,20.18
2019-04-07T11:33:10.642Z,20.18
2019-04-07T11:34:11.045Z,20.19
2019-04-07T11:35:11.187Z,20.19
2019-04-07T11:36:10.660Z,20.19
2019-04-07T11:37:11.241Z,20.2
2019-04-07T11:38:10.425Z,20.19
2019-04-07T11:39:11.122Z,20.2
2019-04-07T11:40:10.759Z,20.21
2019-04-07T11:41:11.189Z,20.2
2019-04-07T11:42:10.695Z,20.21
2019-04-07T11:43:10.863Z,20.2
2019-04-07T11:44:10.678Z,20.2
2019-04-07T11:45:11.280Z,20.21
2019-04-07T11:46:10.880Z,20.2
2019-04-07T11:47:10.930Z,20.21
2019-04-07T11:48:10.499Z,20.22
2019-04-07T11:49:12.966Z,20.22
2019-04-07T11:50:10.623Z,20.21
2019-04-07T11:51:10.620Z,20.21
2019-04-07T11:52:10.468Z,20.21
2019-04-07T11:53:11.061Z,20.21
2019-04-07T11:54:10.594Z,20.21
2019-04-07T11:55:10.722Z,20.21
2019-04-07T11:56:11.430Z,20.2
2019-04-07T11:57:10.869Z,20.19
2019-04-07T11:58:15.419Z,20.18
2019-04-07T11:59:10.724Z,20.19
2019-04-07T12:00:10.749Z,20.2
2019-04-07T12:01:14.237Z,20.22
2019-04-07T12:02:10.739Z,20.2
2019-04-07T12:03:11.647Z,20.21
2019-04-07T12:04:11.185Z,20.22
2019-04-07T12:05:10.558Z,20.23
2019-04-07T12:06:11.577Z,20.24
2019-04-07T12:07:11.149Z,20.24
2019-04-07T12:08:10.566Z,20.25
2019-04-07T12:09:10.849Z,20.26
2019-04-07T12:10:10.527Z,20.27
2019-04-07T12:11:13.062Z,20.27
2019-04-07T12:12:11.436Z,20.27
2019-04-07T12:13:10.599Z,20.29
2019-04-07T12:14:10.714Z,20.28
2019-04-07T12:15:10.721Z,20.3
2019-04-07T12:16:10.654Z,20.31
2019-04-07T12:17:12.508Z,20.3
2019-04-07T12:18:14.152Z,20.33
2019-04-07T12:19:11.605Z,20.33
2019-04-07T12:20:10.825Z,20.33
2019-04-07T12:21:19.174Z,20.33
2019-04-07T12:22:13.094Z,20.33
2019-04-07T12:23:10.505Z,20.34
2019-04-07T12:24:10.716Z,20.34
2019-04-07T12:25:10.700Z,20.36
2019-04-07T12:26:10.543Z,20.36
2019-04-07T12:27:12.216Z,20.37
2019-04-07T12:28:14.460Z,20.37
2019-04-07T12:29:10.773Z,20.38
2019-04-07T12:30:10.581Z,20.39
2019-04-07T12:31:10.660Z,20.4
2019-04-07T12:32:10.637Z,20.39
2019-04-07T12:33:11.444Z,20.42
2019-04-07T12:34:14.019Z,20.41
2019-04-07T12:35:10.793Z,20.42
2019-04-07T12:36:10.494Z,20.42
2019-04-07T12:37:11.611Z,20.43
2019-04-07T12:38:12.159Z,20.44
2019-04-07T12:39:12.120Z,20.45
2019-04-07T12:40:10.902Z,20.44
2019-04-07T12:41:16.892Z,20.45
2019-04-07T12:42:11.298Z,20.45
2019-04-07T12:43:13.048Z,20.46
2019-04-07T12:44:10.560Z,20.47
2019-04-07T12:45:11.187Z,20.46
2019-04-07T12:46:11.675Z,20.48
2019-04-07T12:47:11.322Z,20.49
2019-04-07T12:48:11.315Z,20.49
2019-04-07T12:49:10.637Z,20.49
2019-04-07T12:50:14.664Z,20.49
2019-04-07T12:51:10.419Z,20.5
2019-04-07T12:52:10.438Z,20.51
2019-04-07T12:53:10.502Z,20.52
2019-04-07T12:54:10.532Z,20.52
2019-04-07T12:55:11.038Z,20.53